Queen Isabella — A8IE2 — position and weather

sailwx.info

Track history (hours):
 
Tides and Currents Weather Stations Pressure Air Temp Water Temp Dewpoint Dewpoint Depression Visibility Wind Speed Wind Dir Waves Ship Positions

Queen Isabella

Last reported at 2014-Jul-27 20:11 UTC. Time now 2014-Aug-02 02:43 UTC.
Position N 36°44' W 007°05'.

Length 131 m; draft 7.1 m.

Type: Ship. MMSI: 636090959.

Date/timePositionNaut miles runAvg speedWind from/ knotsBaromVisibWave heightAir tempDewpointWater temp
2014-Jul-27 20:11N 36°44' W 007°05'914.6
2014-Jul-27 19:33N 36°53' W 007°01'4 0.1
2014-Jul-26 10:03N 36°57' W 006°59'714.7
2014-Jul-26 09:33N 36°54' W 007°08'3014.2
2014-Jul-26 07:29N 36°45' W 007°43'1713.0
2014-Jul-26 06:12N 36°40' W 008°03'1213.3
2014-Jul-26 05:19N 36°37' W 008°17'2512.9
2014-Jul-26 03:26N 36°30' W 008°46'1112.8
2014-Jul-26 02:33N 36°26' W 008°59'2512.4
2014-Jul-26 00:30N 36°36' W 009°28'1312.5
2014-Jul-25 23:30N 36°46' W 009°38'2713.4
2014-Jul-25 21:28N 37°13' W 009°45'1313.9
2014-Jul-25 20:33N 37°25' W 009°48'1413.7
2014-Jul-25 19:32N 37°39' W 009°51'1413.3
2014-Jul-25 18:28N 37°53' W 009°55'4513.3
2014-Jul-25 15:06N 38°36' W 010°11'356 6.9
2014-Jul-23 11:17N 43°36' W 005°58'7 9.9
2014-Jul-23 10:33N 43°39' W 006°07'33710.2
2014-Jul-22 01:31N 38°50' W 009°56'1412.3
2014-Jul-22 00:25N 38°37' W 009°53'1413.7
2014-Jul-21 23:26N 38°36' W 009°36'1112.5
2014-Jul-21 22:31N 38°38' W 009°21'1111.8
2014-Jul-21 21:33N 38°41' W 009°07'3 2.8
2014-Jul-21 20:33N 38°41' W 009°04'0 0.0
2014-Jul-21 20:18N 38°41' W 009°04'0 0.0
2014-Jul-21 19:33N 38°41' W 009°04'0 0.0
2014-Jul-21 18:33N 38°41' W 009°04'0 0.0
2014-Jul-21 17:33N 38°41' W 009°04'0 0.0
2014-Jul-21 16:33N 38°41' W 009°04'0 0.0
2014-Jul-21 15:33N 38°41' W 009°04'0 0.0
2014-Jul-21 14:33N 38°41' W 009°04'0 0.0
2014-Jul-21 13:33N 38°41' W 009°04'0 0.0
2014-Jul-21 12:33N 38°41' W 009°04'0 0.0
2014-Jul-21 11:33N 38°41' W 009°04'0 0.0
2014-Jul-21 10:33N 38°41' W 009°04'2 2.4
2014-Jul-21 09:33N 38°41' W 009°07'1411.9
2014-Jul-21 08:23N 38°37' W 009°24'8 0.7
2014-Jul-20 21:12N 38°29' W 009°24'913.7
2014-Jul-20 20:33N 38°20' W 009°24'1413.6
2014-Jul-20 19:34N 38°07' W 009°25'1413.7
2014-Jul-20 18:33N 37°53' W 009°25'1313.2
2014-Jul-20 17:33N 37°40' W 009°25'1313.0
2014-Jul-20 16:33N 37°27' W 009°26'34011.7
2014-Jul-19 11:31N 36°06' W 002°33'1212.7
2014-Jul-19 10:33N 36°06' W 002°18'1413.5
2014-Jul-19 09:33N 36°07' W 002°01'1613.2
2014-Jul-19 08:20N 36°07' W 001°41'1012.9
2014-Jul-19 07:33N 36°08' W 001°29'1312.7
2014-Jul-19 06:33N 36°09' W 001°13'1212.4
2014-Jul-19 05:34N 36°09' W 000°58'1312.1
2014-Jul-19 04:31N 36°09' W 000°42'28 0.9
2014-Jul-17 20:24N 36°01' W 000°09'  
Track history (hours):
 
Tides and Currents Weather Stations Pressure Air Temp Water Temp Dewpoint Dewpoint Depression Visibility Wind Speed Wind Dir Waves Ship Positions

Queen Isabella

Last reported at 2014-Jul-27 20:11 UTC. Time now 2014-Aug-02 02:43 UTC.
Position N 36°44' W 007°05'.

Length 131 m; draft 7.1 m.

Type: Ship. MMSI: 636090959.

Date/timePositionNaut miles runAvg speedWind from/ knotsBaromVisibWave heightAir tempDewpointWater temp
2014-Jul-27 20:11N 36°44' W 007°05'914.6
2014-Jul-27 19:33N 36°53' W 007°01'4 0.1
2014-Jul-26 10:03N 36°57' W 006°59'714.7
2014-Jul-26 09:33N 36°54' W 007°08'3014.2
2014-Jul-26 07:29N 36°45' W 007°43'1713.0
2014-Jul-26 06:12N 36°40' W 008°03'1213.3
2014-Jul-26 05:19N 36°37' W 008°17'2512.9
2014-Jul-26 03:26N 36°30' W 008°46'1112.8
2014-Jul-26 02:33N 36°26' W 008°59'2512.4
2014-Jul-26 00:30N 36°36' W 009°28'1312.5
2014-Jul-25 23:30N 36°46' W 009°38'2713.4
2014-Jul-25 21:28N 37°13' W 009°45'1313.9
2014-Jul-25 20:33N 37°25' W 009°48'1413.7
2014-Jul-25 19:32N 37°39' W 009°51'1413.3
2014-Jul-25 18:28N 37°53' W 009°55'4513.3
2014-Jul-25 15:06N 38°36' W 010°11'356 6.9
2014-Jul-23 11:17N 43°36' W 005°58'7 9.9
2014-Jul-23 10:33N 43°39' W 006°07'33710.2
2014-Jul-22 01:31N 38°50' W 009°56'1412.3
2014-Jul-22 00:25N 38°37' W 009°53'1413.7
2014-Jul-21 23:26N 38°36' W 009°36'1112.5
2014-Jul-21 22:31N 38°38' W 009°21'1111.8
2014-Jul-21 21:33N 38°41' W 009°07'3 2.8
2014-Jul-21 20:33N 38°41' W 009°04'0 0.0
2014-Jul-21 20:18N 38°41' W 009°04'0 0.0
2014-Jul-21 19:33N 38°41' W 009°04'0 0.0
2014-Jul-21 18:33N 38°41' W 009°04'0 0.0
2014-Jul-21 17:33N 38°41' W 009°04'0 0.0
2014-Jul-21 16:33N 38°41' W 009°04'0 0.0
2014-Jul-21 15:33N 38°41' W 009°04'0 0.0
2014-Jul-21 14:33N 38°41' W 009°04'0 0.0
2014-Jul-21 13:33N 38°41' W 009°04'0 0.0
2014-Jul-21 12:33N 38°41' W 009°04'0 0.0
2014-Jul-21 11:33N 38°41' W 009°04'0 0.0
2014-Jul-21 10:33N 38°41' W 009°04'2 2.4
2014-Jul-21 09:33N 38°41' W 009°07'1411.9
2014-Jul-21 08:23N 38°37' W 009°24'8 0.7
2014-Jul-20 21:12N 38°29' W 009°24'913.7
2014-Jul-20 20:33N 38°20' W 009°24'1413.6
2014-Jul-20 19:34N 38°07' W 009°25'1413.7
2014-Jul-20 18:33N 37°53' W 009°25'1313.2
2014-Jul-20 17:33N 37°40' W 009°25'1313.0
2014-Jul-20 16:33N 37°27' W 009°26'34011.7
2014-Jul-19 11:31N 36°06' W 002°33'1212.7
2014-Jul-19 10:33N 36°06' W 002°18'1413.5
2014-Jul-19 09:33N 36°07' W 002°01'1613.2
2014-Jul-19 08:20N 36°07' W 001°41'1012.9
2014-Jul-19 07:33N 36°08' W 001°29'1312.7
2014-Jul-19 06:33N 36°09' W 001°13'1212.4
2014-Jul-19 05:34N 36°09' W 000°58'1312.1
2014-Jul-19 04:31N 36°09' W 000°42'28 0.9
2014-Jul-17 20:24N 36°01' W 000°09'  

Dump ship's entire track history